createdAt,value
2022-07-29T00:00:40.052Z,2.40
2022-07-29T00:03:07.729Z,2.20
2022-07-29T00:05:36.812Z,2.35
2022-07-29T00:08:07.202Z,2.30
2022-07-29T00:10:37.249Z,2.22
2022-07-29T00:13:04.780Z,2.22
2022-07-29T00:15:32.433Z,2.38
2022-07-29T00:17:59.992Z,2.50
2022-07-29T00:20:27.555Z,2.03
2022-07-29T00:22:56.481Z,2.40
2022-07-29T00:25:23.991Z,2.20
2022-07-29T00:27:51.569Z,2.30
2022-07-29T00:30:19.153Z,2.30
2022-07-29T00:32:46.701Z,2.10
2022-07-29T00:35:31.714Z,2.20
2022-07-29T00:38:02.578Z,2.38
2022-07-29T00:40:30.212Z,2.17
2022-07-29T00:42:57.820Z,2.38
2022-07-29T00:45:27.076Z,2.00
2022-07-29T00:47:54.640Z,2.60
2022-07-29T00:50:22.221Z,2.90
2022-07-29T00:52:49.815Z,2.50
2022-07-29T00:55:18.798Z,2.30
2022-07-29T00:57:46.863Z,2.60
2022-07-29T01:00:16.638Z,2.40
2022-07-29T01:02:44.181Z,2.40
2022-07-29T01:05:12.950Z,2.30
2022-07-29T01:07:41.092Z,2.30
2022-07-29T01:10:09.823Z,2.40
2022-07-29T01:12:39.257Z,2.40
2022-07-29T01:15:08.174Z,2.47
2022-07-29T01:17:38.861Z,2.30
2022-07-29T01:20:09.372Z,2.67
2022-07-29T01:22:48.838Z,2.20
2022-07-29T01:25:31.624Z,2.35
2022-07-29T01:28:17.255Z,2.60
2022-07-29T01:30:46.589Z,2.38
2022-07-29T01:33:37.954Z,2.40
2022-07-29T01:36:09.056Z,2.33
2022-07-29T01:38:37.592Z,2.20
2022-07-29T01:41:08.001Z,2.20
2022-07-29T01:43:41.121Z,2.20
2022-07-29T01:46:13.735Z,2.20
2022-07-29T01:48:42.536Z,2.60
2022-07-29T01:51:14.427Z,2.30
2022-07-29T01:53:46.006Z,2.58
2022-07-29T01:56:14.386Z,2.67
2022-07-29T01:58:42.840Z,2.30
2022-07-29T02:01:12.835Z,2.50
2022-07-29T02:03:41.005Z,2.60
2022-07-29T02:06:09.336Z,2.80
2022-07-29T02:08:38.951Z,2.70
2022-07-29T02:11:07.311Z,2.88
2022-07-29T02:13:36.413Z,2.60
2022-07-29T02:16:04.789Z,2.80
2022-07-29T02:18:34.541Z,2.42
2022-07-29T02:21:03.064Z,2.60
2022-07-29T02:23:32.625Z,2.63
2022-07-29T02:26:18.978Z,2.67
2022-07-29T02:28:47.398Z,2.80
2022-07-29T02:31:15.816Z,2.50
2022-07-29T02:33:45.111Z,2.92
2022-07-29T02:36:12.981Z,2.92
2022-07-29T02:38:58.379Z,2.83
2022-07-29T02:41:28.312Z,2.90
2022-07-29T02:43:59.251Z,3.08
2022-07-29T02:46:29.864Z,3.03
2022-07-29T02:49:00.310Z,2.90
2022-07-29T02:51:43.364Z,2.73
2022-07-29T02:54:13.126Z,2.60
2022-07-29T02:56:42.555Z,3.30
2022-07-29T02:59:12.394Z,2.83
2022-07-29T03:01:42.239Z,3.35
2022-07-29T03:04:11.619Z,3.93
2022-07-29T03:06:39.881Z,5.35
2022-07-29T03:09:12.912Z,4.10
2022-07-29T03:11:47.714Z,3.75
2022-07-29T03:14:19.606Z,3.50
2022-07-29T03:16:47.763Z,3.50
2022-07-29T03:19:17.212Z,3.35
2022-07-29T03:21:44.811Z,3.50
2022-07-29T03:24:12.537Z,3.42
2022-07-29T03:26:40.291Z,3.67
2022-07-29T03:29:07.835Z,3.30
2022-07-29T03:31:41.751Z,3.22
2022-07-29T03:34:11.286Z,3.50
2022-07-29T03:36:40.214Z,3.50
2022-07-29T03:39:11.201Z,3.72
2022-07-29T03:41:42.644Z,3.80
2022-07-29T03:44:11.064Z,3.33
2022-07-29T03:46:39.818Z,3.35
2022-07-29T03:49:09.226Z,3.40
2022-07-29T03:51:37.155Z,3.70
2022-07-29T03:54:09.822Z,4.80
2022-07-29T03:56:40.238Z,3.80
2022-07-29T03:59:08.418Z,3.83
2022-07-29T04:01:36.305Z,3.65
2022-07-29T04:04:04.858Z,3.88
2022-07-29T04:06:39.642Z,3.50
2022-07-29T04:09:09.890Z,3.90
2022-07-29T04:12:01.795Z,3.42
2022-07-29T04:14:25.650Z,3.80
2022-07-29T04:16:53.960Z,3.67
2022-07-29T04:19:21.559Z,4.40
2022-07-29T04:21:49.086Z,3.70
2022-07-29T04:24:18.607Z,4.03
2022-07-29T04:26:47.519Z,3.70
2022-07-29T04:29:15.220Z,3.78
2022-07-29T04:31:42.912Z,3.80
2022-07-29T04:34:10.910Z,4.00
2022-07-29T04:36:38.563Z,3.75
2022-07-29T04:39:06.411Z,3.60
2022-07-29T04:41:35.337Z,3.88
2022-07-29T04:44:07.054Z,3.80
2022-07-29T04:46:36.178Z,4.00
2022-07-29T04:49:03.998Z,3.90
2022-07-29T04:51:31.676Z,4.03
2022-07-29T04:53:59.236Z,3.90
2022-07-29T04:56:26.798Z,3.90
2022-07-29T04:58:55.977Z,3.55
2022-07-29T05:01:23.559Z,4.05
2022-07-29T05:03:51.106Z,4.05
2022-07-29T05:06:18.715Z,4.13
2022-07-29T05:08:46.257Z,3.67
2022-07-29T05:11:18.134Z,3.70
2022-07-29T05:13:48.610Z,4.25
2022-07-29T05:16:17.926Z,3.67
2022-07-29T05:18:45.531Z,4.05
2022-07-29T05:21:13.108Z,3.83
2022-07-29T05:23:40.614Z,4.00
2022-07-29T05:26:08.297Z,4.05
2022-07-29T05:28:36.021Z,3.60
2022-07-29T05:31:03.778Z,4.10
2022-07-29T05:33:35.732Z,3.60
2022-07-29T05:36:06.425Z,4.07
2022-07-29T05:38:34.168Z,3.90
2022-07-29T05:41:02.002Z,3.63
2022-07-29T05:43:30.038Z,3.80
2022-07-29T05:45:57.824Z,3.87
2022-07-29T05:48:25.532Z,3.70
2022-07-29T05:50:54.549Z,3.65
2022-07-29T05:53:22.160Z,3.50
2022-07-29T05:55:49.919Z,3.30
2022-07-29T05:58:17.564Z,3.37
2022-07-29T06:00:45.126Z,3.13
2022-07-29T06:03:12.848Z,3.20
2022-07-29T06:05:40.588Z,3.45
2022-07-29T06:08:09.607Z,3.92
2022-07-29T06:10:37.238Z,2.97
2022-07-29T06:13:04.827Z,4.68
2022-07-29T06:15:32.397Z,3.55
2022-07-29T06:18:01.616Z,3.05
2022-07-29T06:20:31.108Z,3.42
2022-07-29T06:22:59.234Z,3.20
2022-07-29T06:25:30.114Z,3.05
2022-07-29T06:27:57.901Z,3.58
2022-07-29T06:30:25.708Z,3.08
2022-07-29T06:32:53.339Z,3.60
2022-07-29T06:35:38.750Z,3.27
2022-07-29T06:38:30.122Z,4.25
2022-07-29T06:41:03.350Z,6.20
2022-07-29T06:43:32.658Z,3.90
2022-07-29T06:46:02.325Z,3.85
2022-07-29T06:48:30.341Z,2.70
2022-07-29T06:50:57.941Z,3.47
2022-07-29T06:53:25.670Z,2.80
2022-07-29T06:55:53.239Z,3.20
2022-07-29T06:58:22.318Z,2.78
2022-07-29T07:00:50.161Z,2.80
2022-07-29T07:03:18.142Z,3.13
2022-07-29T07:05:46.019Z,2.55
2022-07-29T07:08:13.849Z,2.30
2022-07-29T07:10:41.704Z,2.30
2022-07-29T07:13:09.305Z,2.20
2022-07-29T07:15:40.064Z,2.20
2022-07-29T07:18:07.972Z,2.03
2022-07-29T07:20:35.631Z,1.85
2022-07-29T07:23:03.202Z,2.10
2022-07-29T07:25:30.888Z,2.10
2022-07-29T07:27:58.434Z,1.80
2022-07-29T07:30:26.064Z,2.30
2022-07-29T07:32:55.021Z,2.17
2022-07-29T07:35:22.651Z,2.22
2022-07-29T07:37:50.359Z,2.00
2022-07-29T07:40:18.853Z,2.10
2022-07-29T07:42:46.629Z,2.20
2022-07-29T07:45:16.526Z,2.17
2022-07-29T07:47:44.504Z,2.20
2022-07-29T07:50:19.074Z,2.10
2022-07-29T07:52:50.932Z,2.10
2022-07-29T07:55:18.530Z,2.40
2022-07-29T07:57:46.172Z,2.42
2022-07-29T08:00:14.692Z,2.47
2022-07-29T08:02:43.771Z,2.37
2022-07-29T08:05:12.980Z,2.53
2022-07-29T08:07:42.077Z,2.47
2022-07-29T08:10:09.989Z,2.67
2022-07-29T08:12:37.608Z,2.28
2022-07-29T08:15:05.565Z,2.53
2022-07-29T08:17:35.316Z,2.47
2022-07-29T08:20:03.230Z,2.50
2022-07-29T08:22:30.831Z,2.90
2022-07-29T08:24:59.817Z,2.90
2022-07-29T08:27:44.774Z,2.57
2022-07-29T08:30:12.636Z,2.55
2022-07-29T08:32:56.195Z,2.72
2022-07-29T08:35:24.615Z,2.70
2022-07-29T08:37:52.207Z,3.30
2022-07-29T08:40:21.499Z,2.70
2022-07-29T08:42:59.605Z,2.63
2022-07-29T08:45:27.311Z,3.05
2022-07-29T08:47:54.878Z,2.78
2022-07-29T08:50:22.498Z,3.47
2022-07-29T08:52:51.099Z,3.27
2022-07-29T08:55:21.630Z,3.10
2022-07-29T08:57:52.002Z,3.22
2022-07-29T09:00:25.848Z,2.95
2022-07-29T09:02:57.170Z,2.85
2022-07-29T09:05:25.874Z,3.38
2022-07-29T09:07:53.996Z,3.40
2022-07-29T09:10:21.870Z,3.50
2022-07-29T09:12:50.865Z,3.42
2022-07-29T09:15:19.600Z,3.30
2022-07-29T09:17:48.498Z,3.05
2022-07-29T09:20:17.534Z,3.28
2022-07-29T09:22:45.145Z,3.10
2022-07-29T09:25:15.202Z,2.90
2022-07-29T09:27:42.770Z,3.45
2022-07-29T09:30:12.672Z,3.40
2022-07-29T09:32:55.085Z,3.30
2022-07-29T09:35:23.866Z,2.90
2022-07-29T09:37:51.797Z,3.00
2022-07-29T09:40:20.009Z,3.30
2022-07-29T09:42:48.121Z,3.60
2022-07-29T09:45:28.025Z,3.20
2022-07-29T09:47:57.817Z,3.20
2022-07-29T09:50:36.372Z,3.27
2022-07-29T09:53:03.898Z,3.30
2022-07-29T09:55:31.563Z,3.00
2022-07-29T09:58:14.473Z,3.00
2022-07-29T10:00:45.537Z,3.28
2022-07-29T10:03:13.815Z,3.20
2022-07-29T10:05:43.019Z,2.97
2022-07-29T10:08:11.402Z,3.30
2022-07-29T10:10:39.524Z,3.60
2022-07-29T10:13:13.420Z,3.38
2022-07-29T10:15:45.077Z,3.50
2022-07-29T10:18:18.366Z,3.33
2022-07-29T10:20:46.450Z,3.10
2022-07-29T10:23:14.092Z,3.30
2022-07-29T10:25:45.961Z,3.30
2022-07-29T10:28:16.417Z,3.25
2022-07-29T10:30:45.491Z,3.40
2022-07-29T10:33:20.088Z,3.33
2022-07-29T10:35:55.637Z,2.92
2022-07-29T10:38:38.458Z,3.28
2022-07-29T10:41:29.057Z,3.60
2022-07-29T10:44:01.543Z,3.35
2022-07-29T10:46:29.734Z,3.23
2022-07-29T10:49:08.601Z,3.30
2022-07-29T10:51:57.448Z,3.28
2022-07-29T10:54:44.640Z,3.40
2022-07-29T10:57:21.458Z,4.18
2022-07-29T11:00:11.576Z,3.80
2022-07-29T11:02:46.443Z,3.40
2022-07-29T11:05:18.000Z,3.22
2022-07-29T11:08:04.022Z,3.30
2022-07-29T11:10:34.087Z,3.55
2022-07-29T11:13:01.703Z,3.20
2022-07-29T11:15:31.720Z,3.25
2022-07-29T11:18:06.425Z,3.70
2022-07-29T11:20:37.999Z,3.00
2022-07-29T11:23:20.557Z,3.42
2022-07-29T11:26:14.664Z,3.75
2022-07-29T11:28:52.150Z,3.30
2022-07-29T11:31:22.037Z,3.13
2022-07-29T11:33:56.323Z,3.58
2022-07-29T11:36:58.663Z,3.17
2022-07-29T11:39:36.304Z,3.30
2022-07-29T11:42:28.194Z,3.38
2022-07-29T11:47:50.603Z,3.20
2022-07-29T11:50:19.584Z,3.23
2022-07-29T11:52:55.988Z,3.65
2022-07-29T11:55:25.143Z,2.75
2022-07-29T11:58:04.338Z,2.85
2022-07-29T12:00:33.023Z,2.85
2022-07-29T12:03:02.993Z,2.70
2022-07-29T12:05:36.148Z,3.03
2022-07-29T12:07:01.822Z,3.65
2022-07-29T12:08:12.673Z,2.80
2022-07-29T12:10:43.072Z,2.80
2022-07-29T12:13:11.501Z,2.70
2022-07-29T12:15:46.181Z,2.47
2022-07-29T12:18:18.613Z,2.50
2022-07-29T12:20:46.633Z,2.72
2022-07-29T12:23:16.104Z,2.70
2022-07-29T12:25:45.235Z,2.70
2022-07-29T12:28:26.824Z,3.03
2022-07-29T12:30:55.358Z,2.50
2022-07-29T12:33:23.841Z,2.50
2022-07-29T12:36:06.152Z,2.95
2022-07-29T12:38:36.931Z,3.08
2022-07-29T12:41:05.237Z,2.75
2022-07-29T12:43:33.278Z,3.23
2022-07-29T12:46:13.373Z,2.88
2022-07-29T12:48:41.614Z,3.00
2022-07-29T12:51:09.887Z,2.50
2022-07-29T12:53:39.613Z,2.83
2022-07-29T12:56:26.527Z,2.60
2022-07-29T12:58:55.507Z,2.40
2022-07-29T13:01:23.155Z,2.28
2022-07-29T13:03:57.021Z,2.60
2022-07-29T13:06:36.617Z,2.60
2022-07-29T13:09:09.834Z,2.72
2022-07-29T13:11:38.419Z,2.23
2022-07-29T13:14:07.169Z,2.60
2022-07-29T13:16:35.029Z,2.42
2022-07-29T13:19:06.922Z,2.20
2022-07-29T13:21:34.620Z,2.47
2022-07-29T13:24:02.280Z,2.20
2022-07-29T13:26:31.126Z,2.55
2022-07-29T13:28:58.881Z,2.10
2022-07-29T13:31:26.610Z,2.55
2022-07-29T13:33:54.325Z,2.10
2022-07-29T13:36:22.173Z,2.43
2022-07-29T13:38:49.788Z,2.65
2022-07-29T13:41:17.364Z,2.53
2022-07-29T13:43:46.965Z,2.30
2022-07-29T13:46:17.833Z,2.60
2022-07-29T13:48:45.468Z,2.70
2022-07-29T13:51:13.069Z,2.60
2022-07-29T13:53:41.469Z,2.72
2022-07-29T13:56:09.058Z,2.60
2022-07-29T13:58:37.085Z,2.45
2022-07-29T14:01:06.100Z,2.20
2022-07-29T14:03:33.771Z,2.30
2022-07-29T14:06:01.955Z,2.50
2022-07-29T14:08:29.529Z,2.83
2022-07-29T14:10:57.075Z,2.92
2022-07-29T14:13:26.444Z,2.60
2022-07-29T14:15:54.434Z,2.10
2022-07-29T14:18:23.454Z,2.30
2022-07-29T14:20:52.242Z,2.13
2022-07-29T14:23:20.293Z,2.22
2022-07-29T14:25:49.515Z,2.57
2022-07-29T14:28:17.293Z,2.38
2022-07-29T14:30:44.897Z,2.30
2022-07-29T14:33:12.471Z,2.00
2022-07-29T14:35:41.414Z,2.72
2022-07-29T14:38:10.181Z,2.20
2022-07-29T14:40:38.344Z,2.30
2022-07-29T14:43:06.156Z,2.13
2022-07-29T14:45:33.824Z,2.15
2022-07-29T14:48:01.935Z,2.10
2022-07-29T14:50:32.078Z,2.20
2022-07-29T14:53:01.229Z,2.20
2022-07-29T14:55:29.181Z,2.97
2022-07-29T14:58:07.752Z,3.03
2022-07-29T15:00:37.990Z,2.17
2022-07-29T15:03:06.215Z,1.90
2022-07-29T15:05:34.074Z,1.95
2022-07-29T15:08:03.349Z,2.30
2022-07-29T15:10:32.352Z,2.10
2022-07-29T15:12:59.918Z,2.08
2022-07-29T15:15:27.798Z,2.37
2022-07-29T15:17:55.509Z,2.20
2022-07-29T15:20:26.128Z,2.05
2022-07-29T15:22:53.680Z,2.47
2022-07-29T15:25:23.172Z,2.53
2022-07-29T15:27:52.881Z,1.90
2022-07-29T15:30:32.327Z,2.15
2022-07-29T15:33:00.653Z,1.98
2022-07-29T15:35:28.201Z,1.98
2022-07-29T15:37:55.790Z,2.15
2022-07-29T15:40:24.790Z,2.43
2022-07-29T15:42:52.449Z,2.00
2022-07-29T15:45:20.189Z,2.22
2022-07-29T15:47:47.759Z,2.03
2022-07-29T15:50:16.765Z,2.40
2022-07-29T15:52:44.554Z,2.17
2022-07-29T15:55:12.647Z,2.40
2022-07-29T15:57:42.134Z,2.22
2022-07-29T16:00:10.479Z,2.30
2022-07-29T16:02:38.327Z,2.47
2022-07-29T16:05:09.425Z,2.60
2022-07-29T16:07:37.818Z,2.25
2022-07-29T16:10:07.946Z,2.50
2022-07-29T16:12:35.809Z,2.45
2022-07-29T16:15:09.548Z,2.50
2022-07-29T16:17:37.440Z,2.37
2022-07-29T16:20:05.901Z,2.30
2022-07-29T16:22:33.436Z,2.25
2022-07-29T16:25:01.006Z,2.40
2022-07-29T16:27:31.310Z,2.40
2022-07-29T16:30:09.655Z,2.60
2022-07-29T16:32:37.462Z,2.40
2022-07-29T16:35:05.547Z,2.40
2022-07-29T16:37:35.360Z,2.30
2022-07-29T16:40:03.266Z,2.53
2022-07-29T16:42:45.957Z,2.50
2022-07-29T16:45:15.792Z,2.55
2022-07-29T16:47:43.911Z,2.42
2022-07-29T16:50:11.453Z,2.88
2022-07-29T16:52:40.064Z,2.63
2022-07-29T16:55:08.224Z,2.93
2022-07-29T16:57:35.789Z,3.05
2022-07-29T17:00:03.729Z,2.40
2022-07-29T17:02:32.661Z,2.58
2022-07-29T17:05:00.232Z,2.70
2022-07-29T17:07:30.376Z,2.83
2022-07-29T17:10:01.919Z,2.78
2022-07-29T17:12:31.234Z,2.50
2022-07-29T17:14:58.821Z,3.00
2022-07-29T17:17:39.484Z,2.70
2022-07-29T17:20:17.481Z,3.10
2022-07-29T17:22:45.334Z,3.08
2022-07-29T17:25:21.110Z,2.83
2022-07-29T17:27:49.489Z,2.55
2022-07-29T17:30:17.090Z,2.75
2022-07-29T17:32:44.682Z,2.80
2022-07-29T17:35:26.147Z,2.50
2022-07-29T17:37:55.660Z,2.70
2022-07-29T17:40:23.211Z,2.70
2022-07-29T17:42:51.018Z,2.47
2022-07-29T17:45:18.707Z,2.50
2022-07-29T17:47:46.286Z,2.80
2022-07-29T17:50:13.918Z,2.80
2022-07-29T17:52:41.704Z,2.50
2022-07-29T17:55:13.298Z,2.85
2022-07-29T17:57:40.845Z,2.50
2022-07-29T18:00:09.033Z,2.50
2022-07-29T18:02:37.663Z,2.45
2022-07-29T18:05:05.750Z,2.80
2022-07-29T18:07:33.787Z,2.63
2022-07-29T18:10:01.416Z,2.53
2022-07-29T18:12:30.455Z,2.28
2022-07-29T18:14:58.071Z,2.40
2022-07-29T18:17:49.441Z,2.38
2022-07-29T18:20:13.227Z,2.30
2022-07-29T18:22:40.774Z,2.77
2022-07-29T18:25:08.801Z,2.83
2022-07-29T18:27:37.775Z,2.65
2022-07-29T18:30:05.875Z,3.53
2022-07-29T18:32:33.428Z,3.03
2022-07-29T18:35:02.789Z,3.40
2022-07-29T18:38:00.280Z,3.58
2022-07-29T18:40:20.860Z,3.45
2022-07-29T18:42:49.859Z,3.42
2022-07-29T18:45:19.355Z,2.72
2022-07-29T18:47:49.099Z,2.40
2022-07-29T18:50:16.795Z,2.70
2022-07-29T18:52:46.274Z,3.70
2022-07-29T18:55:13.917Z,2.80
2022-07-29T18:57:54.393Z,2.40
2022-07-29T19:00:26.514Z,2.43
2022-07-29T19:02:54.569Z,2.47
2022-07-29T19:05:23.012Z,2.35
2022-07-29T19:07:50.619Z,2.90
2022-07-29T19:10:18.392Z,2.47
2022-07-29T19:12:45.976Z,2.53
2022-07-29T19:15:20.138Z,2.30
2022-07-29T19:17:49.645Z,2.42
2022-07-29T19:20:17.212Z,2.92
2022-07-29T19:22:44.761Z,3.20
2022-07-29T19:25:12.331Z,2.77
2022-07-29T19:27:40.323Z,2.80
2022-07-29T19:30:09.518Z,2.50
2022-07-29T19:32:37.433Z,2.75
2022-07-29T19:35:24.292Z,2.78
2022-07-29T19:37:51.872Z,3.07
2022-07-29T19:40:19.563Z,2.92
2022-07-29T19:42:48.165Z,2.65
2022-07-29T19:45:15.707Z,3.25
2022-07-29T19:47:43.301Z,2.70
2022-07-29T19:50:12.391Z,3.27
2022-07-29T19:52:39.992Z,3.20
2022-07-29T19:55:08.314Z,3.38
2022-07-29T19:57:40.894Z,3.20
2022-07-29T20:00:11.389Z,3.60
2022-07-29T20:02:40.111Z,3.60
2022-07-29T20:05:08.290Z,3.67
2022-07-29T20:07:37.566Z,3.92
2022-07-29T20:10:05.992Z,3.90
2022-07-29T20:12:33.716Z,3.92
2022-07-29T20:15:01.278Z,4.37
2022-07-29T20:17:28.951Z,4.97
2022-07-29T20:19:59.927Z,4.10
2022-07-29T20:22:27.533Z,4.05
2022-07-29T20:24:56.798Z,4.00
2022-07-29T20:27:24.371Z,4.20
2022-07-29T20:29:51.896Z,4.10
2022-07-29T20:32:19.419Z,4.57
2022-07-29T20:34:46.986Z,3.95
2022-07-29T20:37:16.195Z,3.83
2022-07-29T20:39:43.742Z,3.80
2022-07-29T20:42:12.681Z,3.70
2022-07-29T20:44:40.305Z,3.70
2022-07-29T20:47:08.126Z,3.60
2022-07-29T20:49:36.346Z,3.60
2022-07-29T20:52:04.188Z,3.50
2022-07-29T20:54:31.809Z,3.25
2022-07-29T20:56:59.734Z,3.22
2022-07-29T20:59:28.983Z,3.75
2022-07-29T21:01:56.637Z,3.80
2022-07-29T21:04:30.536Z,4.00
2022-07-29T21:06:58.857Z,3.90
2022-07-29T21:09:26.713Z,4.05
2022-07-29T21:11:54.253Z,3.85
2022-07-29T21:14:42.739Z,4.15
2022-07-29T21:17:11.726Z,3.37
2022-07-29T21:19:39.357Z,3.13
2022-07-29T21:22:06.913Z,3.15
2022-07-29T21:24:34.475Z,3.22
2022-07-29T21:27:21.284Z,3.10
2022-07-29T21:29:49.381Z,3.20
2022-07-29T21:32:27.539Z,3.60
2022-07-29T21:34:57.878Z,3.10
2022-07-29T21:37:25.600Z,3.20
2022-07-29T21:39:53.147Z,3.03
2022-07-29T21:42:20.727Z,3.50
2022-07-29T21:44:48.312Z,3.50
2022-07-29T21:47:15.941Z,3.38
2022-07-29T21:49:46.343Z,3.30
2022-07-29T21:52:14.262Z,3.40
2022-07-29T21:54:42.543Z,3.67
2022-07-29T21:57:10.116Z,3.67
2022-07-29T21:59:37.793Z,3.30
2022-07-29T22:02:05.347Z,3.42
2022-07-29T22:04:34.109Z,3.60
2022-07-29T22:07:03.912Z,3.27
2022-07-29T22:09:31.809Z,3.03
2022-07-29T22:11:59.393Z,3.38
2022-07-29T22:14:27.017Z,3.38
2022-07-29T22:16:57.855Z,3.40
2022-07-29T22:19:27.649Z,3.60
2022-07-29T22:21:57.496Z,3.50
2022-07-29T22:24:26.380Z,3.70
2022-07-29T22:26:53.898Z,3.42
2022-07-29T22:29:21.723Z,3.28
2022-07-29T22:31:49.255Z,3.60
2022-07-29T22:34:16.814Z,3.72
2022-07-29T22:36:44.397Z,3.42
2022-07-29T22:39:11.988Z,4.07
2022-07-29T22:41:44.823Z,3.40
2022-07-29T22:44:12.394Z,3.00
2022-07-29T22:46:39.920Z,3.33
2022-07-29T22:49:07.537Z,3.70
2022-07-29T22:51:35.607Z,3.20
2022-07-29T22:54:03.278Z,3.40
2022-07-29T22:56:30.906Z,3.40
2022-07-29T22:58:59.870Z,3.60
2022-07-29T23:01:37.911Z,3.50
2022-07-29T23:04:05.972Z,3.03
2022-07-29T23:06:33.632Z,3.58
2022-07-29T23:09:01.211Z,3.40
2022-07-29T23:11:28.905Z,3.50
2022-07-29T23:13:56.481Z,3.58
2022-07-29T23:16:26.469Z,3.15
2022-07-29T23:18:54.591Z,3.50
2022-07-29T23:21:22.137Z,3.00
2022-07-29T23:23:49.682Z,3.10
2022-07-29T23:26:17.655Z,3.30
2022-07-29T23:28:45.428Z,3.30
2022-07-29T23:31:13.590Z,3.00
2022-07-29T23:33:42.655Z,3.30
2022-07-29T23:36:10.186Z,3.28
2022-07-29T23:38:40.839Z,3.60
2022-07-29T23:41:09.702Z,3.25
2022-07-29T23:43:37.442Z,3.50
2022-07-29T23:46:05.378Z,3.67
2022-07-29T23:48:34.056Z,3.80
2022-07-29T23:51:03.010Z,3.40
2022-07-29T23:53:30.540Z,3.50
2022-07-29T23:55:58.317Z,3.67
2022-07-29T23:58:25.859Z,3.43
